Time;durP1;ratioP1;P1;durP2;ratioP2;P2;SDS_P1;SDS_P2;PMS_P1;PMS_P2;Temp;Humidity;BMP_temperature;BMP_pressure;BME280_temperature;BME280_humidity;BME280_pressure;Samples;Min_cycle;Max_cycle;Signal;HPM_P1;HPM_P2
2023/07/13 00:02:04;;;;;;;8.40;6.70;;;;;;;20.31;71.61;99848.42;129310;1270;115350;-79
2023/07/13 00:05:06;;;;;;;9.90;6.90;;;;;;;20.28;72.04;99848.33;129359;1267;114901;-82
2023/07/13 00:08:08;;;;;;;12.90;6.40;;;;;;;20.24;71.87;99860.52;129347;1265;114883;-81
2023/07/13 00:11:11;;;;;;;11.00;6.30;;;;;;;20.22;71.87;99860.55;129334;1270;114841;-77
2023/07/13 00:14:13;;;;;;;11.90;6.90;;;;;;;20.21;72.03;99850.90;129297;1270;114740;-77
2023/07/13 00:17:16;;;;;;;11.90;7.10;;;;;;;20.18;72.47;99841.65;129431;1282;114794;-78
2023/07/13 00:20:21;;;;;;;8.60;6.30;;;;;;;20.16;73.18;99838.10;129255;1265;127761;-80
2023/07/13 00:23:23;;;;;;;9.80;6.90;;;;;;;20.12;73.24;99837.26;129005;1265;116579;-74
2023/07/13 00:26:25;;;;;;;9.20;7.00;;;;;;;20.08;73.19;99842.31;129334;1265;114835;-80
2023/07/13 00:29:27;;;;;;;9.00;6.50;;;;;;;20.06;72.92;99842.70;129332;1270;114840;-80
2023/07/13 00:32:29;;;;;;;12.60;7.00;;;;;;;20.03;73.03;99839.84;129298;1269;114860;-77
2023/07/13 00:35:32;;;;;;;12.30;7.40;;;;;;;20.01;73.16;99842.83;129299;1269;114757;-78
2023/07/13 00:38:34;;;;;;;12.40;7.20;;;;;;;19.99;73.51;99850.92;129299;1270;115172;-79
2023/07/13 00:41:36;;;;;;;11.90;6.40;;;;;;;19.97;73.42;99858.95;129399;1279;114920;-80
2023/07/13 00:44:39;;;;;;;10.50;6.90;;;;;;;19.96;73.60;99848.44;129025;1265;116553;-79
2023/07/13 00:47:43;;;;;;;10.20;7.50;;;;;;;19.92;73.93;99834.59;129343;1267;114791;-78
2023/07/13 00:50:49;;;;;;;10.40;7.60;;;;;;;19.91;74.27;99840.17;129449;1265;115205;-77
2023/07/13 00:53:53;;;;;;;13.90;7.60;;;;;;;19.89;74.32;99853.23;129368;1267;114749;-79
2023/07/13 00:56:57;;;;;;;10.30;7.10;;;;;;;19.85;74.41;99853.83;129252;1267;128768;-78
2023/07/13 01:00:06;;;;;;;11.90;7.30;;;;;;;19.83;74.14;99856.80;129301;1288;114755;-78
2023/07/13 01:03:09;;;;;;;10.30;7.00;;;;;;;19.80;74.55;99857.80;129193;1265;114867;-78
2023/07/13 01:06:12;;;;;;;13.50;7.20;;;;;;;19.79;74.63;99870.08;129349;1267;114734;-80
2023/07/13 01:09:15;;;;;;;10.30;7.30;;;;;;;19.77;74.72;99878.45;129154;1271;114919;-77
2023/07/13 01:12:17;;;;;;;9.70;7.10;;;;;;;19.74;74.75;99889.38;129258;1265;114791;-78
2023/07/13 01:15:39;;;;;;;12.60;7.10;;;;;;;19.71;74.93;99895.80;129278;1270;114842;-78
2023/07/13 01:18:42;;;;;;;10.80;7.80;;;;;;;19.70;75.12;99880.73;129391;1270;114739;-78
2023/07/13 01:21:50;;;;;;;15.30;7.60;;;;;;;19.66;75.40;99871.30;129351;1269;114737;-79
2023/07/13 01:24:53;;;;;;;11.40;6.80;;;;;;;19.62;75.63;99860.44;129257;1265;114794;-79
2023/07/13 01:27:55;;;;;;;11.80;8.00;;;;;;;19.57;75.73;99855.64;129282;1269;115385;-78
2023/07/13 01:30:59;;;;;;;10.50;8.20;;;;;;;19.54;75.84;99853.39;129295;1269;114762;-79
2023/07/13 01:34:01;;;;;;;19.30;9.40;;;;;;;19.51;75.96;99851.55;129346;1266;114935;-79
2023/07/13 01:37:05;;;;;;;11.30;8.50;;;;;;;19.46;76.23;99849.05;129178;1272;114848;-79
2023/07/13 01:40:08;;;;;;;11.20;8.40;;;;;;;19.42;76.33;99847.75;129366;1269;114866;-76
2023/07/13 01:43:10;;;;;;;11.90;8.00;;;;;;;19.38;76.40;99846.61;129337;1269;114850;-75
2023/07/13 01:46:12;;;;;;;11.50;7.60;;;;;;;19.34;76.53;99845.36;129398;1267;114848;-77
2023/07/13 01:49:14;;;;;;;9.70;7.40;;;;;;;19.29;76.37;99841.41;129213;1288;115312;-77
2023/07/13 01:52:16;;;;;;;10.00;8.20;;;;;;;19.24;76.36;99837.19;129269;1269;115188;-77
2023/07/13 01:55:20;;;;;;;14.60;7.50;;;;;;;19.18;76.40;99836.65;129411;1265;114748;-79
2023/07/13 01:58:22;;;;;;;14.10;8.40;;;;;;;19.13;76.49;99834.73;129323;1288;114823;-79
2023/07/13 02:01:24;;;;;;;12.10;8.50;;;;;;;19.08;76.90;99834.84;129466;1271;114983;-69
2023/07/13 02:04:26;;;;;;;17.00;8.00;;;;;;;19.04;76.93;99838.68;129647;1270;115807;-78
2023/07/13 02:07:28;;;;;;;8.60;7.60;;;;;;;19.00;76.95;99845.77;129596;1265;128830;-75
2023/07/13 02:10:30;;;;;;;11.80;7.60;;;;;;;18.94;77.15;99839.55;129434;1280;114973;-78
2023/07/13 02:13:33;;;;;;;11.90;7.70;;;;;;;18.89;77.16;99835.13;129355;1288;114780;-79
2023/07/13 02:16:35;;;;;;;12.40;7.90;;;;;;;18.84;77.33;99828.71;129094;1265;116981;-78
2023/07/13 02:19:37;;;;;;;12.60;8.60;;;;;;;18.80;77.50;99821.29;129352;1267;114739;-77
2023/07/13 02:22:39;;;;;;;10.50;8.30;;;;;;;18.75;77.80;99815.63;129478;1288;114845;-75
2023/07/13 02:25:45;;;;;;;14.30;9.10;;;;;;;18.70;77.79;99814.42;129388;1265;114804;-75
2023/07/13 02:28:47;;;;;;;11.60;8.30;;;;;;;18.65;77.84;99811.81;129152;1273;128170;-74
2023/07/13 02:31:49;;;;;;;11.40;8.70;;;;;;;18.58;78.03;99813.17;129384;1266;115017;-76
2023/07/13 02:34:52;;;;;;;11.80;8.40;;;;;;;18.53;78.26;99812.34;129371;1270;115393;-74
2023/07/13 02:37:54;;;;;;;11.30;8.80;;;;;;;18.48;78.30;99807.13;129335;1269;114709;-73
2023/07/13 02:40:57;;;;;;;12.10;9.30;;;;;;;18.44;78.66;99808.98;129293;1270;114855;-74
2023/07/13 02:44:03;;;;;;;12.90;8.20;;;;;;;18.41;78.52;99803.52;129318;1265;114854;-75
2023/07/13 02:47:06;;;;;;;10.60;8.50;;;;;;;18.35;78.48;99794.55;129300;1265;114805;-72
2023/07/13 02:50:08;;;;;;;13.10;9.00;;;;;;;18.32;78.61;99797.62;129313;1265;115438;-71
2023/07/13 02:53:11;;;;;;;12.60;8.70;;;;;;;18.28;78.69;99798.70;129354;1270;114737;-73
2023/07/13 02:56:14;;;;;;;10.50;8.90;;;;;;;18.25;78.93;99801.66;129356;1267;114675;-75
2023/07/13 02:59:16;;;;;;;14.10;8.20;;;;;;;18.21;78.92;99805.64;129002;1286;114830;-73
2023/07/13 03:02:18;;;;;;;12.20;8.70;;;;;;;18.18;79.03;99817.05;129340;1269;114759;-74
2023/07/13 03:05:20;;;;;;;12.30;9.30;;;;;;;18.17;79.15;99822.58;129236;1271;114912;-74
2023/07/13 03:08:22;;;;;;;10.10;8.80;;;;;;;18.15;79.29;99824.36;129277;1268;114740;-73
2023/07/13 03:11:24;;;;;;;12.60;9.30;;;;;;;18.15;79.32;99837.98;129320;1269;116445;-75
2023/07/13 03:14:26;;;;;;;14.20;9.40;;;;;;;18.15;79.63;99837.03;129318;1270;114867;-74
2023/07/13 03:17:28;;;;;;;13.00;9.60;;;;;;;18.18;79.71;99836.77;129288;1265;115367;-74
2023/07/13 03:20:35;;;;;;;12.40;8.70;;;;;;;18.24;79.86;99838.44;129333;1271;114724;-73
2023/07/13 03:23:37;;;;;;;16.60;9.10;;;;;;;18.33;80.11;99839.27;129331;1281;114809;-76
2023/07/13 03:26:39;;;;;;;11.70;9.10;;;;;;;18.41;80.21;99828.82;129290;1269;114950;-72
2023/07/13 03:29:41;;;;;;;14.20;8.80;;;;;;;18.50;80.26;99827.58;129091;1270;367206;-76
2023/07/13 03:32:43;;;;;;;13.60;9.40;;;;;;;18.60;80.31;99825.86;129260;1265;128814;-75
2023/07/13 03:35:45;;;;;;;12.60;9.40;;;;;;;18.65;80.09;99816.64;129348;1268;114746;-75
2023/07/13 03:38:49;;;;;;;12.70;9.90;;;;;;;18.70;80.06;99820.55;129293;1265;114727;-74
2023/07/13 03:41:51;;;;;;;17.10;10.20;;;;;;;18.76;80.01;99829.11;129433;1271;114911;-73
2023/07/13 03:44:53;;;;;;;11.20;8.80;;;;;;;18.80;79.90;99832.67;129332;1270;114890;-76
2023/07/13 03:47:55;;;;;;;14.00;9.90;;;;;;;18.84;79.86;99836.81;129387;1265;114778;-73
2023/07/13 03:50:57;;;;;;;10.70;8.80;;;;;;;18.88;79.60;99832.69;129133;1271;114839;-73
2023/07/13 03:53:59;;;;;;;12.10;9.30;;;;;;;18.93;79.67;99827.36;129228;1270;115178;-76
2023/07/13 03:57:01;;;;;;;12.20;8.90;;;;;;;18.99;79.61;99820.67;129336;1270;114822;-76
2023/07/13 04:00:04;;;;;;;10.20;8.10;;;;;;;19.05;79.48;99821.73;129340;1265;116404;-77
2023/07/13 04:03:06;;;;;;;13.60;9.50;;;;;;;19.13;79.45;99826.24;129335;1271;114738;-72
2023/07/13 04:06:20;;;;;;;11.40;8.60;;;;;;;19.21;79.33;99823.69;129283;1265;115121;-76
2023/07/13 04:09:23;;;;;;;9.70;8.00;;;;;;;19.29;78.95;99823.11;129356;1288;114750;-74
2023/07/13 04:12:25;;;;;;;10.80;7.60;;;;;;;19.38;78.71;99827.77;129293;1270;115508;-77
2023/07/13 04:15:31;;;;;;;10.00;8.00;;;;;;;19.47;78.70;99837.77;129352;1265;114758;-75
2023/07/13 04:18:33;;;;;;;12.20;6.90;;;;;;;19.56;78.45;99842.17;129052;1270;116386;-73
2023/07/13 04:21:35;;;;;;;11.10;7.30;;;;;;;19.65;78.44;99854.95;129271;1268;114721;-74
2023/07/13 04:24:37;;;;;;;9.40;6.50;;;;;;;19.73;78.24;99866.26;129349;1271;114765;-73
2023/07/13 04:27:40;;;;;;;9.00;7.10;;;;;;;19.79;77.68;99874.60;129312;1270;115452;-78
2023/07/13 04:30:42;;;;;;;8.30;6.80;;;;;;;19.83;77.34;99894.31;129358;1283;117293;-76
2023/07/13 04:33:44;;;;;;;9.60;7.40;;;;;;;19.85;77.17;99942.88;129361;1277;114724;-73
2023/07/13 04:36:46;;;;;;;11.90;7.30;;;;;;;19.84;76.85;99958.16;128989;1274;128092;-72
2023/07/13 04:39:48;;;;;;;9.80;6.10;;;;;;;19.78;76.29;99973.48;129314;1265;114805;-73
2023/07/13 04:42:50;;;;;;;8.50;6.00;;;;;;;19.67;75.60;100006.50;129313;1270;114765;-67
2023/07/13 04:45:52;;;;;;;11.20;5.80;;;;;;;19.58;75.80;100045.34;128915;1273;114848;-68
2023/07/13 04:48:54;;;;;;;7.60;5.30;;;;;;;19.51;75.77;100086.40;129262;1270;114830;-65
2023/07/13 04:51:56;;;;;;;10.30;4.40;;;;;;;19.37;75.39;100122.31;129362;1269;114897;-66
2023/07/13 04:55:01;;;;;;;7.30;4.40;;;;;;;19.19;75.53;100143.56;129014;1288;115517;-66
2023/07/13 04:58:04;;;;;;;11.30;5.00;;;;;;;19.01;75.78;100144.05;129580;1270;130459;-67
2023/07/13 05:01:08;;;;;;;12.10;4.90;;;;;;;18.78;75.64;100144.80;129531;1271;114836;-67
2023/07/13 05:04:10;;;;;;;9.80;4.90;;;;;;;18.52;76.07;100145.92;129546;1269;114720;-67
2023/07/13 05:07:12;;;;;;;8.50;4.70;;;;;;;18.33;76.27;100148.23;129299;1270;114945;-66
2023/07/13 05:10:15;;;;;;;10.40;5.10;;;;;;;18.15;76.53;100143.40;129512;1271;114829;-66
2023/07/13 05:13:18;;;;;;;7.90;4.00;;;;;;;18.00;77.09;100132.53;129068;1274;114897;-66
2023/07/13 05:16:20;;;;;;;7.70;5.00;;;;;;;17.86;77.21;100129.56;129188;1270;114730;-66
2023/07/13 05:19:22;;;;;;;8.40;4.90;;;;;;;17.73;77.41;100128.82;129088;1280;115451;-67
2023/07/13 05:22:24;;;;;;;9.70;4.80;;;;;;;17.60;77.43;100127.10;129149;1270;114960;-67
2023/07/13 05:25:26;;;;;;;8.00;5.00;;;;;;;17.49;77.79;100117.21;128906;1269;114816;-67
2023/07/13 05:28:31;;;;;;;7.50;4.60;;;;;;;17.38;78.13;100110.28;129256;1270;115203;-67
2023/07/13 05:31:33;;;;;;;6.60;4.00;;;;;;;17.29;78.38;100098.93;128909;1265;114879;-67
2023/07/13 05:34:35;;;;;;;9.90;4.60;;;;;;;17.21;78.52;100097.06;129214;1270;114743;-68
2023/07/13 05:37:38;;;;;;;23.20;5.60;;;;;;;17.18;78.94;100089.77;129293;1270;115217;-67
2023/07/13 05:40:43;;;;;;;10.70;4.80;;;;;;;17.13;79.46;100065.20;129318;1271;116420;-68
2023/07/13 05:43:45;;;;;;;;;;;;;;;17.01;79.78;100031.01;129315;1271;114833;-67
2023/07/13 05:46:48;;;;;;;5.50;4.20;;;;;;;16.84;80.42;99990.64;129108;1273;114740;-68
2023/07/13 05:49:50;;;;;;;10.20;4.60;;;;;;;16.68;81.09;99974.46;129306;1271;114721;-69
2023/07/13 05:52:54;;;;;;;8.00;4.20;;;;;;;16.56;80.99;99981.54;129302;1271;114847;-68
2023/07/13 05:55:57;;;;;;;5.30;4.50;;;;;;;16.53;81.08;99999.25;129236;1265;114833;-67
2023/07/13 05:58:59;;;;;;;5.80;4.60;;;;;;;16.53;81.29;99998.85;129056;1273;114855;-68
2023/07/13 06:02:04;;;;;;;10.90;4.30;;;;;;;16.55;81.61;99995.70;129030;1273;114832;-69
2023/07/13 06:05:07;;;;;;;13.90;4.90;;;;;;;16.56;81.92;99996.32;129233;1270;114780;-68
2023/07/13 06:08:09;;;;;;;10.60;4.80;;;;;;;16.59;83.08;99985.13;129312;1270;114802;-69
2023/07/13 06:11:16;;;;;;;5.50;3.90;;;;;;;16.58;83.43;99962.29;129232;1281;114707;-69
2023/07/13 06:14:18;;;;;;;6.90;4.30;;;;;;;16.53;83.42;99965.69;128861;1272;116330;-68
2023/07/13 06:17:21;;;;;;;8.80;4.60;;;;;;;16.53;83.22;99989.00;129181;1270;114768;-67
2023/07/13 06:20:23;;;;;;;13.70;6.20;;;;;;;16.59;83.56;99992.63;129245;1271;116344;-67
2023/07/13 06:23:26;;;;;;;11.90;5.40;;;;;;;16.73;84.14;99992.20;129323;1288;115243;-67
2023/07/13 06:26:28;;;;;;;6.70;5.10;;;;;;;16.89;84.09;100001.45;129322;1270;114865;-69
2023/07/13 06:29:31;;;;;;;11.90;5.40;;;;;;;17.08;84.09;100011.84;129293;1270;114750;-67
2023/07/13 06:32:33;;;;;;;8.60;5.90;;;;;;;17.40;84.99;100020.80;129300;1281;115199;-67
2023/07/13 06:35:35;;;;;;;7.30;5.60;;;;;;;17.85;85.48;100022.48;129361;1265;114770;-67
2023/07/13 06:38:38;;;;;;;7.50;5.70;;;;;;;18.25;84.92;100021.63;129281;1270;114844;-69
2023/07/13 06:41:40;;;;;;;8.50;5.40;;;;;;;18.48;84.22;100021.45;129261;1271;114847;-68
2023/07/13 06:44:43;;;;;;;6.90;4.70;;;;;;;18.62;83.49;100028.55;129222;1270;115179;-69
2023/07/13 06:47:45;;;;;;;7.80;4.80;;;;;;;18.76;83.05;100036.98;129340;1271;114779;-68
2023/07/13 06:50:49;;;;;;;6.00;3.60;;;;;;;18.80;82.02;100045.95;129208;1269;128247;-67
2023/07/13 06:53:52;;;;;;;6.90;3.70;;;;;;;18.82;81.71;100063.76;128950;1288;114934;-68
2023/07/13 06:56:54;;;;;;;7.50;3.90;;;;;;;18.85;81.98;100083.34;129285;1270;114782;-68
2023/07/13 06:59:57;;;;;;;12.00;4.60;;;;;;;18.90;82.20;100096.64;129276;1269;114759;-70
2023/07/13 07:02:59;;;;;;;6.70;4.10;;;;;;;18.92;82.55;100102.09;129348;1269;114693;-68
2023/07/13 07:06:09;;;;;;;7.70;4.90;;;;;;;18.90;82.14;100114.39;129019;1277;114750;-68
2023/07/13 07:09:11;;;;;;;8.90;4.90;;;;;;;18.82;81.98;100123.65;128849;1276;127608;-68
2023/07/13 07:12:13;;;;;;;6.80;4.90;;;;;;;18.74;81.98;100131.05;129254;1271;115411;-68
2023/07/13 07:15:18;;;;;;;6.40;5.50;;;;;;;18.65;82.20;100139.18;129317;1270;116429;-67
2023/07/13 07:18:20;;;;;;;5.70;5.10;;;;;;;18.57;82.35;100148.19;129357;1269;114962;-67
2023/07/13 07:21:23;;;;;;;10.80;5.80;;;;;;;18.51;82.49;100157.76;129257;1270;114718;-68
2023/07/13 07:24:25;;;;;;;12.70;6.10;;;;;;;18.45;82.76;100160.83;129327;1278;114795;-68
2023/07/13 07:27:28;;;;;;;8.30;6.20;;;;;;;18.40;82.79;100174.10;129412;1269;114766;-67
2023/07/13 07:30:30;;;;;;;9.70;6.80;;;;;;;18.34;82.81;100183.93;128990;1285;128389;-67
2023/07/13 07:33:34;;;;;;;11.00;6.50;;;;;;;18.28;82.90;100179.39;129264;1270;114785;-68
2023/07/13 07:36:36;;;;;;;8.50;6.40;;;;;;;18.20;82.76;100160.89;129275;1278;115417;-67
2023/07/13 07:39:38;;;;;;;9.00;7.10;;;;;;;18.16;83.09;100152.04;129291;1265;114762;-67
2023/07/13 07:42:40;;;;;;;20.40;7.80;;;;;;;18.13;83.31;100135.67;129324;1270;115199;-67
2023/07/13 07:45:44;;;;;;;13.20;7.20;;;;;;;18.11;83.86;100101.13;129267;1288;114780;-67
2023/07/13 07:48:46;;;;;;;15.10;6.70;;;;;;;17.99;85.66;100073.70;129034;1273;127666;-67
2023/07/13 07:51:49;;;;;;;18.30;8.80;;;;;;;17.80;85.66;100039.87;129249;1270;114888;-67
2023/07/13 07:54:51;;;;;;;14.70;7.10;;;;;;;17.58;89.18;99991.52;129249;1288;114809;-67
2023/07/13 07:57:54;;;;;;;12.80;7.50;;;;;;;17.29;91.42;99980.70;129268;1278;114782;-67
2023/07/13 08:01:03;;;;;;;15.00;8.60;;;;;;;17.16;91.60;99995.46;128986;1271;114853;-68
2023/07/13 08:04:05;;;;;;;16.30;8.50;;;;;;;17.17;92.61;99994.69;128855;1270;114968;-68
2023/07/13 08:07:08;;;;;;;9.40;8.00;;;;;;;17.22;93.28;99993.42;129252;1281;114876;-67
2023/07/13 08:10:10;;;;;;;13.80;9.00;;;;;;;17.28;93.99;100014.04;129256;1265;114798;-68
2023/07/13 08:13:15;;;;;;;14.60;8.30;;;;;;;17.39;94.73;100031.90;129320;1269;114762;-68
2023/07/13 08:16:17;;;;;;;;;;;;;;;17.58;95.80;100055.27;129261;1265;115335;-68
2023/07/13 08:19:19;;;;;;;13.40;8.10;;;;;;;17.88;97.49;100064.88;129275;1269;115264;-68
2023/07/13 08:22:22;;;;;;;19.30;9.60;;;;;;;18.29;99.02;100081.17;129317;1269;115433;-67
2023/07/13 08:25:24;;;;;;;13.60;9.50;;;;;;;18.68;99.71;100088.48;128963;1276;116548;-68
2023/07/13 08:28:26;;;;;;;13.30;9.60;;;;;;;19.00;99.91;100089.50;129009;1281;114867;-68
2023/07/13 08:31:29;;;;;;;21.20;10.50;;;;;;;19.29;100.00;100093.44;129241;1265;114823;-68
2023/07/13 08:34:31;;;;;;;17.90;10.40;;;;;;;19.49;99.63;100101.06;129294;1269;114774;-68
2023/07/13 08:37:33;;;;;;;13.50;9.10;;;;;;;19.64;99.45;100110.60;129102;1273;115464;-67
2023/07/13 08:40:35;;;;;;;15.20;9.30;;;;;;;19.77;99.26;100117.02;129067;1269;114831;-67
2023/07/13 08:43:38;;;;;;;16.20;8.60;;;;;;;19.86;98.75;100118.78;129331;1265;114873;-68
2023/07/13 08:46:41;;;;;;;14.50;8.60;;;;;;;19.94;98.69;100127.67;129354;1265;114750;-67
2023/07/13 08:49:44;;;;;;;14.80;9.20;;;;;;;19.99;98.36;100133.73;129302;1270;114834;-68
2023/07/13 08:52:46;;;;;;;17.30;10.10;;;;;;;20.02;98.57;100134.90;129133;1272;115205;-67
2023/07/13 08:55:51;;;;;;;19.60;10.70;;;;;;;20.15;99.21;100142.63;129260;1270;114862;-68
2023/07/13 08:59:00;;;;;;;16.00;10.50;;;;;;;20.24;99.17;100143.83;129284;1270;114856;-67
2023/07/13 09:02:08;;;;;;;19.60;11.10;;;;;;;20.31;99.08;100143.17;129295;1267;114739;-69
2023/07/13 09:05:34;;;;;;;14.60;10.70;;;;;;;20.33;99.02;100146.91;129018;1271;114768;-67
2023/07/13 09:08:57;;;;;;;12.80;10.40;;;;;;;20.33;98.67;100152.20;128972;1270;127596;-68
2023/07/13 09:12:19;;;;;;;16.40;10.40;;;;;;;20.46;99.79;100151.51;128894;1276;115268;-67
2023/07/13 09:15:28;;;;;;;18.50;10.10;;;;;;;20.76;100.00;100154.93;128994;1273;114778;-67
2023/07/13 09:18:37;;;;;;;11.90;9.00;;;;;;;21.05;100.00;100154.52;129311;1288;114845;-67
2023/07/13 09:21:41;;;;;;;13.30;9.30;;;;;;;21.30;100.00;100158.69;129084;1274;115007;-67
2023/07/13 09:24:54;;;;;;;15.60;10.40;;;;;;;21.44;99.95;100155.52;129189;1270;128317;-66
2023/07/13 09:28:10;;;;;;;10.30;9.10;;;;;;;21.63;99.94;100145.38;129098;1270;115310;-66
2023/07/13 09:31:39;;;;;;;13.30;10.00;;;;;;;21.82;100.00;100142.38;129029;1273;114773;-66
2023/07/13 09:34:41;;;;;;;10.30;8.50;;;;;;;22.11;99.99;100146.05;129087;1274;114808;-67
2023/07/13 09:37:45;;;;;;;9.70;8.10;;;;;;;22.26;98.76;100148.95;129254;1270;114775;-66
2023/07/13 09:40:48;;;;;;;9.80;7.40;;;;;;;22.37;98.70;100148.34;129316;1270;114794;-66
2023/07/13 09:44:02;;;;;;;9.90;7.40;;;;;;;22.39;97.26;100142.52;129244;1281;114769;-68
2023/07/13 09:47:27;;;;;;;11.00;6.80;;;;;;;22.54;97.75;100136.29;129168;1265;114749;-67
2023/07/13 09:50:29;;;;;;;10.60;6.30;;;;;;;22.65;95.94;100137.38;129401;1268;115496;-72
2023/07/13 09:53:31;;;;;;;7.20;6.30;;;;;;;22.69;95.64;100133.27;129313;1269;114821;-72
2023/07/13 09:56:33;;;;;;;6.00;5.40;;;;;;;22.83;95.91;100141.41;129504;1270;114759;-72
2023/07/13 09:59:40;;;;;;;7.80;6.10;;;;;;;22.89;94.99;100143.23;129357;1270;128189;-72
2023/07/13 10:02:43;;;;;;;7.40;5.10;;;;;;;23.07;95.49;100146.29;129276;1280;114703;-72
2023/07/13 10:05:46;;;;;;;6.60;4.40;;;;;;;23.18;94.37;100142.70;129378;1269;115337;-73
2023/07/13 10:08:52;;;;;;;5.50;4.60;;;;;;;23.16;93.34;100134.56;129445;1269;114760;-73
2023/07/13 10:11:54;;;;;;;6.00;4.30;;;;;;;23.39;94.32;100133.63;129256;1270;114802;-73
2023/07/13 10:14:59;;;;;;;4.80;4.10;;;;;;;23.51;93.83;100137.96;129283;1270;114752;-72
2023/07/13 10:18:02;;;;;;;5.70;4.00;;;;;;;23.56;92.83;100135.55;129201;1272;115205;-73
2023/07/13 10:21:14;;;;;;;6.50;5.00;;;;;;;23.73;94.20;100132.73;129380;1265;114842;-72
2023/07/13 10:24:20;;;;;;;8.10;3.80;;;;;;;23.78;92.40;100138.09;129234;1281;115043;-72
2023/07/13 10:27:35;;;;;;;6.90;3.80;;;;;;;23.70;91.21;100149.92;129356;1269;114829;-74
2023/07/13 10:30:42;;;;;;;4.20;3.00;;;;;;;23.68;91.29;100155.77;128973;1267;127625;-71
2023/07/13 10:33:44;;;;;;;4.30;3.30;;;;;;;23.69;91.29;100159.27;129255;1270;115280;-73
2023/07/13 10:36:48;;;;;;;3.40;2.70;;;;;;;23.85;91.59;100150.98;129389;1270;114762;-72
2023/07/13 10:39:52;;;;;;;5.60;3.10;;;;;;;24.24;92.40;100147.88;129367;1270;114771;-73
2023/07/13 10:42:57;;;;;;;3.10;2.90;;;;;;;24.72;91.63;100143.22;128985;1272;114924;-73
2023/07/13 10:46:00;;;;;;;10.00;2.70;;;;;;;25.08;90.45;100145.94;129401;1267;128812;-72
2023/07/13 10:49:05;;;;;;;4.90;2.50;;;;;;;25.38;88.76;100144.86;129297;1288;114821;-74
2023/07/13 10:52:36;;;;;;;3.20;2.30;;;;;;;25.71;86.66;100145.27;129342;1281;114747;-72
2023/07/13 10:56:12;;;;;;;2.30;2.10;;;;;;;26.07;83.87;100145.15;129145;1281;114929;-73
2023/07/13 10:59:25;;;;;;;4.60;2.10;;;;;;;26.42;81.69;100142.83;128989;1269;114783;-73
2023/07/13 11:02:28;;;;;;;2.90;2.00;;;;;;;26.67;79.07;100146.27;129059;1270;119245;-72
2023/07/13 11:05:33;;;;;;;3.50;2.20;;;;;;;26.86;77.93;100150.11;129360;1270;114876;-73
2023/07/13 11:08:38;;;;;;;6.60;2.40;;;;;;;27.00;76.13;100148.58;129089;1270;114905;-72
2023/07/13 11:11:40;;;;;;;2.60;2.20;;;;;;;27.12;75.49;100142.16;129366;1282;114666;-73
2023/07/13 11:15:06;;;;;;;3.20;2.00;;;;;;;27.18;73.55;100142.95;129258;1272;115200;-71
2023/07/13 11:18:21;;;;;;;6.40;2.90;;;;;;;27.12;72.04;100141.30;129337;1270;120666;-75
2023/07/13 11:21:27;;;;;;;3.60;2.20;;;;;;;27.06;71.15;100142.35;129053;1274;114804;-73
2023/07/13 11:24:48;;;;;;;2.50;1.70;;;;;;;27.05;70.33;100146.66;129108;1281;114887;-72
2023/07/13 11:28:05;;;;;;;4.30;2.10;;;;;;;27.13;70.09;100151.56;129343;1278;115155;-72
2023/07/13 11:31:15;;;;;;;3.80;2.30;;;;;;;27.23;69.49;100153.52;128922;1267;114933;-72
2023/07/13 11:34:24;;;;;;;3.10;2.20;;;;;;;27.28;68.00;100154.83;129001;1274;119268;-72
2023/07/13 11:37:26;;;;;;;3.10;1.90;;;;;;;27.29;67.34;100153.27;129239;1271;115414;-72
2023/07/13 11:40:29;;;;;;;2.00;1.70;;;;;;;27.36;66.78;100144.73;129322;1270;114871;-73
2023/07/13 11:43:33;;;;;;;3.00;2.30;;;;;;;27.40;65.83;100143.86;129174;1273;114871;-72
2023/07/13 11:46:35;;;;;;;3.10;2.10;;;;;;;27.45;65.78;100145.67;128975;1265;115388;-74
2023/07/13 11:49:55;;;;;;;3.60;2.70;;;;;;;27.49;65.15;100141.67;129280;1288;114867;-72
2023/07/13 11:52:58;;;;;;;5.30;2.00;;;;;;;27.53;64.63;100147.70;129429;1270;115207;-72
2023/07/13 11:56:01;;;;;;;2.30;2.00;;;;;;;27.59;64.37;100148.92;129264;1288;114900;-73
2023/07/13 11:59:08;;;;;;;4.70;2.20;;;;;;;27.66;64.00;100149.73;129285;1279;115240;-73
2023/07/13 12:02:28;;;;;;;4.80;2.00;;;;;;;27.76;63.31;100151.29;129057;1274;115021;-72
2023/07/13 12:05:32;;;;;;;3.40;2.00;;;;;;;27.80;62.42;100149.65;129237;1288;119980;-73
2023/07/13 12:08:40;;;;;;;4.70;2.50;;;;;;;27.83;62.09;100151.08;129030;1273;114890;-73
2023/07/13 12:11:43;;;;;;;6.40;2.40;;;;;;;27.82;61.35;100156.35;129313;1288;114835;-72
2023/07/13 12:14:45;;;;;;;4.60;2.30;;;;;;;27.75;60.90;100157.88;129389;1279;115492;-74
2023/07/13 12:17:48;;;;;;;2.90;2.20;;;;;;;27.70;60.26;100153.29;129286;1273;114741;-73
2023/07/13 12:20:52;;;;;;;1.90;1.70;;;;;;;27.70;60.14;100159.08;129288;1269;114778;-73
2023/07/13 12:23:55;;;;;;;4.30;1.60;;;;;;;27.73;59.90;100157.22;129428;1267;114898;-73
2023/07/13 12:27:03;;;;;;;4.70;2.00;;;;;;;27.78;59.15;100151.73;129297;1267;114766;-72
2023/07/13 12:30:30;;;;;;;6.20;2.00;;;;;;;27.81;58.38;100151.52;129273;1270;114977;-72
2023/07/13 12:33:33;;;;;;;9.30;2.30;;;;;;;27.89;58.22;100150.64;129049;1289;114875;-72
2023/07/13 12:36:38;;;;;;;2.60;1.60;;;;;;;27.99;57.36;100143.41;129066;1270;114789;-72
2023/07/13 12:39:46;;;;;;;2.60;1.90;;;;;;;28.00;56.26;100140.48;129243;1271;114864;-72
2023/07/13 12:42:49;;;;;;;7.30;1.80;;;;;;;28.01;56.36;100141.61;129274;1271;114753;-72
2023/07/13 12:46:29;;;;;;;5.60;2.60;;;;;;;28.09;56.23;100139.39;129148;1270;114805;-72
2023/07/13 12:49:34;;;;;;;7.30;1.90;;;;;;;28.10;55.39;100138.73;129164;1270;114765;-72
2023/07/13 12:52:36;;;;;;;4.70;1.90;;;;;;;28.06;54.66;100138.08;129008;1288;119242;-72
2023/07/13 12:55:48;;;;;;;2.90;1.90;;;;;;;27.97;54.12;100137.42;129311;1288;115133;-72
2023/07/13 12:58:58;;;;;;;9.20;2.00;;;;;;;27.86;53.77;100136.36;129251;1268;115024;-74
2023/07/13 13:02:02;;;;;;;6.30;2.00;;;;;;;27.75;53.45;100135.80;129021;1270;114853;-72
2023/07/13 13:05:05;;;;;;;2.20;2.00;;;;;;;27.62;52.91;100131.13;129035;1288;114984;-72
2023/07/13 13:08:11;;;;;;;4.00;2.10;;;;;;;27.54;52.99;100127.19;129145;1273;114808;-72
2023/07/13 13:11:15;;;;;;;2.90;2.00;;;;;;;27.43;52.38;100123.55;129059;1273;115182;-72
2023/07/13 13:14:17;;;;;;;3.00;1.90;;;;;;;27.28;52.18;100121.67;129280;1271;115471;-72
2023/07/13 13:17:24;;;;;;;4.60;2.10;;;;;;;27.16;52.22;100122.83;129286;1267;114790;-72
2023/07/13 13:20:27;;;;;;;4.70;2.10;;;;;;;27.05;51.73;100119.83;129289;1281;114932;-73
2023/07/13 13:23:29;;;;;;;4.70;2.00;;;;;;;26.89;51.58;100115.88;129331;1270;114834;-73
2023/07/13 13:26:32;;;;;;;3.50;1.80;;;;;;;26.79;51.87;100112.81;129292;1271;114755;-74
2023/07/13 13:29:37;;;;;;;5.40;2.40;;;;;;;26.73;52.37;100113.90;129341;1271;115230;-73
2023/07/13 13:32:39;;;;;;;;;;;;;;;26.66;51.85;100110.13;129311;1278;114833;-73
2023/07/13 13:35:45;;;;;;;3.30;1.80;;;;;;;26.60;51.78;100114.93;129289;1288;114849;-73
2023/07/13 13:38:48;;;;;;;3.10;2.10;;;;;;;26.49;51.23;100112.30;129047;1288;119468;-73
2023/07/13 13:41:52;;;;;;;2.50;1.90;;;;;;;26.38;51.38;100108.33;129222;1271;115377;-73
2023/07/13 13:44:56;;;;;;;3.50;2.50;;;;;;;26.35;51.25;100107.77;129331;1271;114859;-72
2023/07/13 13:47:58;;;;;;;2.10;1.90;;;;;;;26.33;51.47;100109.46;129364;1271;114712;-72
2023/07/13 13:51:11;;;;;;;6.50;2.20;;;;;;;26.34;51.42;100110.38;129338;1267;114751;-72
2023/07/13 13:54:15;;;;;;;3.10;1.90;;;;;;;26.32;50.96;100107.65;129240;1271;120239;-73
2023/07/13 13:57:17;;;;;;;3.70;2.10;;;;;;;26.27;51.08;100106.45;128983;1271;114849;-72
2023/07/13 14:00:20;;;;;;;3.20;2.00;;;;;;;26.24;50.99;100103.45;129323;1270;114751;-73